Albany, LA (70711)

5:12 PM CDT on August 03, 2015 (GMT -0500)
Hungarian Settlement | | Change Station
CLOSE
Current Station
Personal Weather Station
Location: Albany, LA
Elevation: 52 ft
Nearby Weather Stations

Elev 52 ft 30.49 °N, 90.58 °W | Updated 3 minutes ago

Partly Cloudy
Partly Cloudy
96.4 °F
Feels Like 110 °F
N
6.8
Wind Variable Wind from SE

Today
High -- | Low -- °F
--% Chance of Precip.
Yesterday
High -- | Low -- °F
Precip. -- in
6:21 AM 7:55 PM
Waning Gibbous, 83% visible
Pressure 29.91 in
Visibility 10.0 miles
Clouds Scattered Clouds 11000 ft
Heat Index 110 °F
Dew Point 76 °F
Humidity 52%
Rainfall 0.00 in
Snow Depth Not available.
UV 4 out of 12
Pollen 3.30 out of 12
Air Quality Not available.
Flu Activity Not available.
METAR KHDC 032155Z AUTO 16012G17KT 10SM SCT110 35/19 A2991 RMK AO2

More Conditions Fewer Conditions

Pressure 29.91 in
Visibility 10.0 miles
Clouds Scattered Clouds 11000 ft
Heat Index 110 °F
Dew Point 76 °F
Humidity 52%
Rainfall 0.00 in
Snow Depth Not available.
UV 4 out of 12
Pollen 3.30 out of 12
Air Quality Not available.
Flu Activity Not available.
METAR KHDC 032155Z AUTO 16012G17KT 10SM SCT110 35/19 A2991 RMK AO2

More Conditions Fewer Conditions

10-Day Weather Forecast

×

Almanac

Astronomy

Aug. 03, 2015 Rise Set
Actual Time
Civil Twilight
Nautical Twilight
Astronomical Twilight
Moon
Length of Visible Light
Length of Day
Tomorrow will be .
, % of the Moon is Illuminated

Today's Extremes

State Highs State Lows

Community

WunderPhotos

Upload Photos

1,843,782 photos uploaded!

WunderBlogs® & News

Nearby

Air Quality

  Air Quality AQ Index Pollutant
Not available.

Snow Depth

Station Depth Elevation

Earthquake Activity

City Distance Mag. Time & Date
Minimum magnitude displayed is 2.5.

Coastal Water Temperatures

Place Temperature

Stations

Nearby Weather Stations

Station Location Temp. Windchill Dew Point Humidity Wind Precip. Elev Updated Type